sensor_id;sensor_type;location;lat;lon;timestamp;P1;durP1;ratioP1;P2;durP2;ratioP2
46613;SDS011;32338;50.430;6.806;2023-04-16T00:00:12;10.13;;;9.00;;
46613;SDS011;32338;50.430;6.806;2023-04-16T00:02:38;11.48;;;8.50;;
46613;SDS011;32338;50.430;6.806;2023-04-16T00:05:05;12.82;;;8.73;;
46613;SDS011;32338;50.430;6.806;2023-04-16T00:07:32;11.10;;;8.15;;
46613;SDS011;32338;50.430;6.806;2023-04-16T00:10:00;9.82;;;8.77;;
46613;SDS011;32338;50.430;6.806;2023-04-16T00:12:27;12.32;;;9.00;;
46613;SDS011;32338;50.430;6.806;2023-04-16T00:14:53;9.77;;;8.77;;
46613;SDS011;32338;50.430;6.806;2023-04-16T00:17:20;12.85;;;9.93;;
46613;SDS011;32338;50.430;6.806;2023-04-16T00:19:46;14.90;;;9.95;;
46613;SDS011;32338;50.430;6.806;2023-04-16T00:22:13;11.25;;;9.90;;
46613;SDS011;32338;50.430;6.806;2023-04-16T00:24:39;11.45;;;9.63;;
46613;SDS011;32338;50.430;6.806;2023-04-16T00:27:08;11.65;;;9.40;;
46613;SDS011;32338;50.430;6.806;2023-04-16T00:29:34;14.57;;;9.00;;
46613;SDS011;32338;50.430;6.806;2023-04-16T00:32:01;12.60;;;9.25;;
46613;SDS011;32338;50.430;6.806;2023-04-16T00:34:28;13.30;;;9.32;;
46613;SDS011;32338;50.430;6.806;2023-04-16T00:36:54;11.52;;;9.73;;
46613;SDS011;32338;50.430;6.806;2023-04-16T00:39:21;10.07;;;9.02;;
46613;SDS011;32338;50.430;6.806;2023-04-16T00:41:47;12.82;;;9.27;;
46613;SDS011;32338;50.430;6.806;2023-04-16T00:44:15;13.07;;;9.73;;
46613;SDS011;32338;50.430;6.806;2023-04-16T00:46:42;12.77;;;9.27;;
46613;SDS011;32338;50.430;6.806;2023-04-16T00:49:09;16.67;;;10.40;;
46613;SDS011;32338;50.430;6.806;2023-04-16T00:51:35;16.20;;;10.38;;
46613;SDS011;32338;50.430;6.806;2023-04-16T00:54:02;12.40;;;9.60;;
46613;SDS011;32338;50.430;6.806;2023-04-16T00:56:29;12.70;;;10.20;;
46613;SDS011;32338;50.430;6.806;2023-04-16T00:58:57;17.20;;;9.57;;
46613;SDS011;32338;50.430;6.806;2023-04-16T01:01:25;12.65;;;9.27;;
46613;SDS011;32338;50.430;6.806;2023-04-16T01:03:52;14.38;;;10.13;;
46613;SDS011;32338;50.430;6.806;2023-04-16T01:06:20;17.73;;;10.88;;
46613;SDS011;32338;50.430;6.806;2023-04-16T01:08:46;15.02;;;9.85;;
46613;SDS011;32338;50.430;6.806;2023-04-16T01:11:13;25.20;;;11.02;;
46613;SDS011;32338;50.430;6.806;2023-04-16T01:13:40;16.38;;;11.15;;
46613;SDS011;32338;50.430;6.806;2023-04-16T01:16:08;18.38;;;10.57;;
46613;SDS011;32338;50.430;6.806;2023-04-16T01:18:38;13.50;;;10.43;;
46613;SDS011;32338;50.430;6.806;2023-04-16T01:21:06;16.75;;;10.93;;
46613;SDS011;32338;50.430;6.806;2023-04-16T01:23:33;14.35;;;10.93;;
46613;SDS011;32338;50.430;6.806;2023-04-16T01:25:59;21.45;;;11.18;;
46613;SDS011;32338;50.430;6.806;2023-04-16T01:28:26;11.88;;;9.88;;
46613;SDS011;32338;50.430;6.806;2023-04-16T01:30:52;15.02;;;11.07;;
46613;SDS011;32338;50.430;6.806;2023-04-16T01:33:19;20.60;;;10.93;;
46613;SDS011;32338;50.430;6.806;2023-04-16T01:35:46;13.80;;;10.63;;
46613;SDS011;32338;50.430;6.806;2023-04-16T01:38:14;14.98;;;10.25;;
46613;SDS011;32338;50.430;6.806;2023-04-16T01:40:41;18.50;;;10.13;;
46613;SDS011;32338;50.430;6.806;2023-04-16T01:43:08;13.30;;;10.18;;
46613;SDS011;32338;50.430;6.806;2023-04-16T01:45:34;10.13;;;9.05;;
46613;SDS011;32338;50.430;6.806;2023-04-16T01:48:01;12.38;;;9.57;;
46613;SDS011;32338;50.430;6.806;2023-04-16T01:50:29;14.65;;;10.18;;
46613;SDS011;32338;50.430;6.806;2023-04-16T01:52:56;10.93;;;9.75;;
46613;SDS011;32338;50.430;6.806;2023-04-16T01:55:24;11.75;;;9.15;;
46613;SDS011;32338;50.430;6.806;2023-04-16T01:57:51;16.92;;;9.32;;
46613;SDS011;32338;50.430;6.806;2023-04-16T02:00:17;15.40;;;9.98;;
46613;SDS011;32338;50.430;6.806;2023-04-16T02:02:44;15.43;;;10.38;;
46613;SDS011;32338;50.430;6.806;2023-04-16T02:05:13;11.93;;;9.43;;
46613;SDS011;32338;50.430;6.806;2023-04-16T02:07:39;12.15;;;10.15;;
46613;SDS011;32338;50.430;6.806;2023-04-16T02:10:06;14.85;;;9.68;;
46613;SDS011;32338;50.430;6.806;2023-04-16T02:12:35;15.77;;;10.02;;
46613;SDS011;32338;50.430;6.806;2023-04-16T02:15:02;14.80;;;10.55;;
46613;SDS011;32338;50.430;6.806;2023-04-16T02:17:29;14.98;;;10.60;;
46613;SDS011;32338;50.430;6.806;2023-04-16T02:19:55;15.70;;;10.85;;
46613;SDS011;32338;50.430;6.806;2023-04-16T02:22:22;18.35;;;10.43;;
46613;SDS011;32338;50.430;6.806;2023-04-16T02:24:48;18.13;;;10.88;;
46613;SDS011;32338;50.430;6.806;2023-04-16T02:27:15;18.55;;;11.02;;
46613;SDS011;32338;50.430;6.806;2023-04-16T02:29:43;19.52;;;10.57;;
46613;SDS011;32338;50.430;6.806;2023-04-16T02:32:10;15.77;;;11.02;;
46613;SDS011;32338;50.430;6.806;2023-04-16T02:34:36;12.20;;;9.98;;
46613;SDS011;32338;50.430;6.806;2023-04-16T02:37:04;16.63;;;9.40;;
46613;SDS011;32338;50.430;6.806;2023-04-16T02:39:30;13.88;;;9.27;;
46613;SDS011;32338;50.430;6.806;2023-04-16T02:41:57;17.05;;;9.75;;
46613;SDS011;32338;50.430;6.806;2023-04-16T02:44:24;14.45;;;9.40;;
46613;SDS011;32338;50.430;6.806;2023-04-16T02:46:52;14.93;;;9.07;;
46613;SDS011;32338;50.430;6.806;2023-04-16T02:49:19;15.40;;;9.30;;
46613;SDS011;32338;50.430;6.806;2023-04-16T02:51:45;9.75;;;8.57;;
46613;SDS011;32338;50.430;6.806;2023-04-16T02:54:12;12.52;;;8.88;;
46613;SDS011;32338;50.430;6.806;2023-04-16T02:56:38;12.20;;;9.02;;
46613;SDS011;32338;50.430;6.806;2023-04-16T02:59:05;14.25;;;8.30;;
46613;SDS011;32338;50.430;6.806;2023-04-16T03:01:31;10.38;;;8.00;;
46613;SDS011;32338;50.430;6.806;2023-04-16T03:03:59;11.65;;;7.80;;
46613;SDS011;32338;50.430;6.806;2023-04-16T03:06:26;12.18;;;9.07;;
46613;SDS011;32338;50.430;6.806;2023-04-16T03:08:52;11.50;;;8.45;;
46613;SDS011;32338;50.430;6.806;2023-04-16T03:11:19;12.18;;;8.48;;
46613;SDS011;32338;50.430;6.806;2023-04-16T03:13:46;11.07;;;9.07;;
46613;SDS011;32338;50.430;6.806;2023-04-16T03:16:12;11.07;;;8.50;;
46613;SDS011;32338;50.430;6.806;2023-04-16T03:18:39;14.38;;;8.50;;
46613;SDS011;32338;50.430;6.806;2023-04-16T03:21:07;13.15;;;8.75;;
46613;SDS011;32338;50.430;6.806;2023-04-16T03:23:33;14.48;;;9.02;;
46613;SDS011;32338;50.430;6.806;2023-04-16T03:26:00;13.05;;;9.65;;
46613;SDS011;32338;50.430;6.806;2023-04-16T03:28:27;14.75;;;9.63;;
46613;SDS011;32338;50.430;6.806;2023-04-16T03:30:54;12.45;;;8.63;;
46613;SDS011;32338;50.430;6.806;2023-04-16T03:33:20;14.45;;;9.48;;
46613;SDS011;32338;50.430;6.806;2023-04-16T03:35:53;14.90;;;10.43;;
46613;SDS011;32338;50.430;6.806;2023-04-16T03:38:21;21.25;;;11.43;;
46613;SDS011;32338;50.430;6.806;2023-04-16T03:40:48;18.50;;;11.43;;
46613;SDS011;32338;50.430;6.806;2023-04-16T03:43:15;18.35;;;12.07;;
46613;SDS011;32338;50.430;6.806;2023-04-16T03:45:42;21.05;;;12.05;;
46613;SDS011;32338;50.430;6.806;2023-04-16T03:48:09;26.95;;;12.18;;
46613;SDS011;32338;50.430;6.806;2023-04-16T03:50:36;31.50;;;13.05;;
46613;SDS011;32338;50.430;6.806;2023-04-16T03:53:03;28.92;;;13.15;;
46613;SDS011;32338;50.430;6.806;2023-04-16T03:55:31;27.17;;;12.55;;
46613;SDS011;32338;50.430;6.806;2023-04-16T03:57:57;40.70;;;13.13;;
46613;SDS011;32338;50.430;6.806;2023-04-16T04:00:27;33.35;;;12.82;;
46613;SDS011;32338;50.430;6.806;2023-04-16T04:02:53;33.17;;;12.85;;
46613;SDS011;32338;50.430;6.806;2023-04-16T04:05:20;24.20;;;12.80;;
46613;SDS011;32338;50.430;6.806;2023-04-16T04:07:46;33.42;;;12.98;;
46613;SDS011;32338;50.430;6.806;2023-04-16T04:10:13;24.60;;;11.70;;
46613;SDS011;32338;50.430;6.806;2023-04-16T04:12:41;23.38;;;12.77;;
46613;SDS011;32338;50.430;6.806;2023-04-16T04:15:08;25.70;;;13.48;;
46613;SDS011;32338;50.430;6.806;2023-04-16T04:17:36;29.98;;;12.07;;
46613;SDS011;32338;50.430;6.806;2023-04-16T04:20:02;23.83;;;13.38;;
46613;SDS011;32338;50.430;6.806;2023-04-16T04:22:29;22.85;;;12.80;;
46613;SDS011;32338;50.430;6.806;2023-04-16T04:24:56;22.05;;;12.93;;
46613;SDS011;32338;50.430;6.806;2023-04-16T04:27:23;24.05;;;12.38;;
46613;SDS011;32338;50.430;6.806;2023-04-16T04:29:51;23.80;;;12.93;;
46613;SDS011;32338;50.430;6.806;2023-04-16T04:32:17;19.63;;;12.55;;
46613;SDS011;32338;50.430;6.806;2023-04-16T04:34:44;40.15;;;13.05;;
46613;SDS011;32338;50.430;6.806;2023-04-16T04:37:10;24.98;;;12.82;;
46613;SDS011;32338;50.430;6.806;2023-04-16T04:39:37;18.77;;;11.18;;
46613;SDS011;32338;50.430;6.806;2023-04-16T04:42:03;24.73;;;12.23;;
46613;SDS011;32338;50.430;6.806;2023-04-16T04:44:30;24.92;;;13.43;;
46613;SDS011;32338;50.430;6.806;2023-04-16T04:46:58;23.08;;;12.90;;
46613;SDS011;32338;50.430;6.806;2023-04-16T04:49:24;33.88;;;13.57;;
46613;SDS011;32338;50.430;6.806;2023-04-16T04:51:51;22.95;;;12.45;;
46613;SDS011;32338;50.430;6.806;2023-04-16T04:54:18;20.67;;;12.77;;
46613;SDS011;32338;50.430;6.806;2023-04-16T04:56:44;33.22;;;12.38;;
46613;SDS011;32338;50.430;6.806;2023-04-16T04:59:11;20.33;;;12.05;;
46613;SDS011;32338;50.430;6.806;2023-04-16T05:01:38;34.33;;;13.18;;
46613;SDS011;32338;50.430;6.806;2023-04-16T05:04:06;26.05;;;12.18;;
46613;SDS011;32338;50.430;6.806;2023-04-16T05:06:32;22.83;;;12.25;;
46613;SDS011;32338;50.430;6.806;2023-04-16T05:08:59;22.75;;;11.18;;
46613;SDS011;32338;50.430;6.806;2023-04-16T05:11:25;21.75;;;11.75;;
46613;SDS011;32338;50.430;6.806;2023-04-16T05:13:52;20.00;;;11.40;;
46613;SDS011;32338;50.430;6.806;2023-04-16T05:16:19;18.17;;;10.10;;
46613;SDS011;32338;50.430;6.806;2023-04-16T05:18:45;20.60;;;10.75;;
46613;SDS011;32338;50.430;6.806;2023-04-16T05:21:13;15.55;;;10.70;;
46613;SDS011;32338;50.430;6.806;2023-04-16T05:23:40;14.90;;;9.88;;
46613;SDS011;32338;50.430;6.806;2023-04-16T05:26:06;14.98;;;9.63;;
46613;SDS011;32338;50.430;6.806;2023-04-16T05:28:33;12.77;;;8.88;;
46613;SDS011;32338;50.430;6.806;2023-04-16T05:31:00;14.15;;;9.00;;
46613;SDS011;32338;50.430;6.806;2023-04-16T05:33:26;15.90;;;9.57;;
46613;SDS011;32338;50.430;6.806;2023-04-16T05:35:53;15.75;;;9.68;;
46613;SDS011;32338;50.430;6.806;2023-04-16T05:38:21;14.70;;;8.98;;
46613;SDS011;32338;50.430;6.806;2023-04-16T05:40:47;11.55;;;8.60;;
46613;SDS011;32338;50.430;6.806;2023-04-16T05:43:14;12.88;;;8.88;;
46613;SDS011;32338;50.430;6.806;2023-04-16T05:45:41;14.50;;;8.73;;
46613;SDS011;32338;50.430;6.806;2023-04-16T05:48:07;14.88;;;9.15;;
46613;SDS011;32338;50.430;6.806;2023-04-16T05:50:34;12.43;;;9.10;;
46613;SDS011;32338;50.430;6.806;2023-04-16T05:53:01;11.85;;;8.48;;
46613;SDS011;32338;50.430;6.806;2023-04-16T05:55:31;11.40;;;7.75;;
46613;SDS011;32338;50.430;6.806;2023-04-16T05:57:57;13.95;;;8.48;;
46613;SDS011;32338;50.430;6.806;2023-04-16T06:00:24;13.32;;;8.75;;
46613;SDS011;32338;50.430;6.806;2023-04-16T06:02:52;12.90;;;8.05;;
46613;SDS011;32338;50.430;6.806;2023-04-16T06:05:18;15.20;;;9.45;;
46613;SDS011;32338;50.430;6.806;2023-04-16T06:07:45;12.95;;;8.73;;
46613;SDS011;32338;50.430;6.806;2023-04-16T06:10:11;12.43;;;8.70;;
46613;SDS011;32338;50.430;6.806;2023-04-16T06:12:39;16.17;;;8.80;;
46613;SDS011;32338;50.430;6.806;2023-04-16T06:15:07;21.25;;;9.73;;
46613;SDS011;32338;50.430;6.806;2023-04-16T06:17:34;17.42;;;9.48;;
46613;SDS011;32338;50.430;6.806;2023-04-16T06:20:01;14.55;;;8.95;;
46613;SDS011;32338;50.430;6.806;2023-04-16T06:22:27;12.32;;;8.60;;
46613;SDS011;32338;50.430;6.806;2023-04-16T06:24:54;15.38;;;8.65;;
46613;SDS011;32338;50.430;6.806;2023-04-16T06:27:21;12.05;;;8.02;;
46613;SDS011;32338;50.430;6.806;2023-04-16T06:29:49;12.48;;;7.78;;
46613;SDS011;32338;50.430;6.806;2023-04-16T06:32:15;10.85;;;7.43;;
46613;SDS011;32338;50.430;6.806;2023-04-16T06:34:42;10.90;;;7.63;;
46613;SDS011;32338;50.430;6.806;2023-04-16T06:37:09;10.68;;;7.80;;
46613;SDS011;32338;50.430;6.806;2023-04-16T06:39:35;9.65;;;7.22;;
46613;SDS011;32338;50.430;6.806;2023-04-16T06:42:02;11.80;;;6.93;;
46613;SDS011;32338;50.430;6.806;2023-04-16T06:44:29;11.07;;;7.60;;
46613;SDS011;32338;50.430;6.806;2023-04-16T06:46:57;10.93;;;7.15;;
46613;SDS011;32338;50.430;6.806;2023-04-16T06:49:24;12.90;;;6.75;;
46613;SDS011;32338;50.430;6.806;2023-04-16T06:51:50;9.00;;;6.90;;
46613;SDS011;32338;50.430;6.806;2023-04-16T06:54:17;13.32;;;6.97;;
46613;SDS011;32338;50.430;6.806;2023-04-16T06:56:43;14.98;;;7.80;;
46613;SDS011;32338;50.430;6.806;2023-04-16T06:59:10;11.50;;;7.35;;
46613;SDS011;32338;50.430;6.806;2023-04-16T07:01:37;11.13;;;7.60;;
46613;SDS011;32338;50.430;6.806;2023-04-16T07:04:05;12.35;;;7.28;;
46613;SDS011;32338;50.430;6.806;2023-04-16T07:06:31;15.20;;;7.13;;
46613;SDS011;32338;50.430;6.806;2023-04-16T07:08:58;10.70;;;7.68;;
46613;SDS011;32338;50.430;6.806;2023-04-16T07:11:25;8.85;;;6.85;;
46613;SDS011;32338;50.430;6.806;2023-04-16T07:13:51;9.48;;;6.75;;
46613;SDS011;32338;50.430;6.806;2023-04-16T07:16:18;19.27;;;7.45;;
46613;SDS011;32338;50.430;6.806;2023-04-16T07:18:45;17.85;;;7.53;;
46613;SDS011;32338;50.430;6.806;2023-04-16T07:21:12;14.23;;;8.18;;
46613;SDS011;32338;50.430;6.806;2023-04-16T07:23:40;14.80;;;7.88;;
46613;SDS011;32338;50.430;6.806;2023-04-16T07:26:06;18.05;;;6.82;;
46613;SDS011;32338;50.430;6.806;2023-04-16T07:28:33;15.63;;;8.10;;
46613;SDS011;32338;50.430;6.806;2023-04-16T07:31:00;14.07;;;8.10;;
46613;SDS011;32338;50.430;6.806;2023-04-16T07:33:26;10.75;;;7.88;;
46613;SDS011;32338;50.430;6.806;2023-04-16T07:35:53;13.90;;;8.10;;
46613;SDS011;32338;50.430;6.806;2023-04-16T07:38:21;15.25;;;7.43;;
46613;SDS011;32338;50.430;6.806;2023-04-16T07:40:48;19.90;;;8.30;;
46613;SDS011;32338;50.430;6.806;2023-04-16T07:43:14;13.55;;;8.02;;
46613;SDS011;32338;50.430;6.806;2023-04-16T07:45:41;17.55;;;7.50;;
46613;SDS011;32338;50.430;6.806;2023-04-16T07:48:07;24.48;;;8.50;;
46613;SDS011;32338;50.430;6.806;2023-04-16T07:50:34;15.80;;;8.07;;
46613;SDS011;32338;50.430;6.806;2023-04-16T07:53:01;16.17;;;10.02;;
46613;SDS011;32338;50.430;6.806;2023-04-16T07:55:29;15.73;;;9.50;;
46613;SDS011;32338;50.430;6.806;2023-04-16T07:57:56;14.68;;;8.30;;
46613;SDS011;32338;50.430;6.806;2023-04-16T08:00:22;17.02;;;9.40;;
46613;SDS011;32338;50.430;6.806;2023-04-16T08:02:49;13.65;;;7.53;;
46613;SDS011;32338;50.430;6.806;2023-04-16T08:05:15;19.98;;;9.27;;
46613;SDS011;32338;50.430;6.806;2023-04-16T08:07:42;18.23;;;9.10;;
46613;SDS011;32338;50.430;6.806;2023-04-16T08:10:09;16.35;;;8.57;;
46613;SDS011;32338;50.430;6.806;2023-04-16T08:12:37;20.83;;;8.95;;
46613;SDS011;32338;50.430;6.806;2023-04-16T08:15:04;17.38;;;8.35;;
46613;SDS011;32338;50.430;6.806;2023-04-16T08:17:31;17.23;;;8.57;;
46613;SDS011;32338;50.430;6.806;2023-04-16T08:19:58;14.38;;;8.00;;
46613;SDS011;32338;50.430;6.806;2023-04-16T08:22:25;15.30;;;9.13;;
46613;SDS011;32338;50.430;6.806;2023-04-16T08:24:52;62.35;;;29.08;;
46613;SDS011;32338;50.430;6.806;2023-04-16T08:27:19;33.28;;;16.35;;
46613;SDS011;32338;50.430;6.806;2023-04-16T08:29:47;22.60;;;10.13;;
46613;SDS011;32338;50.430;6.806;2023-04-16T08:32:13;16.45;;;8.15;;
46613;SDS011;32338;50.430;6.806;2023-04-16T08:34:40;20.10;;;9.48;;
46613;SDS011;32338;50.430;6.806;2023-04-16T08:37:07;19.95;;;9.07;;
46613;SDS011;32338;50.430;6.806;2023-04-16T08:39:33;17.65;;;8.73;;
46613;SDS011;32338;50.430;6.806;2023-04-16T08:42:01;17.02;;;8.35;;
46613;SDS011;32338;50.430;6.806;2023-04-16T08:44:30;15.23;;;7.88;;
46613;SDS011;32338;50.430;6.806;2023-04-16T08:47:00;20.13;;;8.20;;
46613;SDS011;32338;50.430;6.806;2023-04-16T08:49:26;17.70;;;8.57;;
46613;SDS011;32338;50.430;6.806;2023-04-16T08:51:54;19.88;;;8.07;;
46613;SDS011;32338;50.430;6.806;2023-04-16T08:57:10;15.25;;;6.35;;
46613;SDS011;32338;50.430;6.806;2023-04-16T08:59:41;15.02;;;6.70;;
46613;SDS011;32338;50.430;6.806;2023-04-16T09:02:12;14.88;;;6.30;;
46613;SDS011;32338;50.430;6.806;2023-04-16T09:04:40;12.45;;;6.18;;
46613;SDS011;32338;50.430;6.806;2023-04-16T09:07:07;10.63;;;6.00;;
46613;SDS011;32338;50.430;6.806;2023-04-16T09:09:34;15.27;;;7.07;;
46613;SDS011;32338;50.430;6.806;2023-04-16T09:12:03;16.17;;;6.57;;
46613;SDS011;32338;50.430;6.806;2023-04-16T09:14:30;11.95;;;6.32;;
46613;SDS011;32338;50.430;6.806;2023-04-16T09:16:57;15.55;;;7.15;;
46613;SDS011;32338;50.430;6.806;2023-04-16T09:19:26;14.93;;;7.28;;
46613;SDS011;32338;50.430;6.806;2023-04-16T09:21:53;19.23;;;7.60;;
46613;SDS011;32338;50.430;6.806;2023-04-16T09:24:20;16.05;;;7.93;;
46613;SDS011;32338;50.430;6.806;2023-04-16T09:26:47;18.75;;;7.90;;
46613;SDS011;32338;50.430;6.806;2023-04-16T09:29:32;18.00;;;7.68;;
46613;SDS011;32338;50.430;6.806;2023-04-16T09:32:03;21.88;;;8.30;;
46613;SDS011;32338;50.430;6.806;2023-04-16T09:34:32;20.45;;;11.77;;
46613;SDS011;32338;50.430;6.806;2023-04-16T09:37:15;21.83;;;12.13;;
46613;SDS011;32338;50.430;6.806;2023-04-16T09:39:42;27.15;;;14.57;;
46613;SDS011;32338;50.430;6.806;2023-04-16T09:42:09;21.40;;;10.25;;
46613;SDS011;32338;50.430;6.806;2023-04-16T09:44:36;18.90;;;9.95;;
46613;SDS011;32338;50.430;6.806;2023-04-16T09:47:04;19.35;;;9.88;;
46613;SDS011;32338;50.430;6.806;2023-04-16T09:49:34;22.98;;;10.90;;
46613;SDS011;32338;50.430;6.806;2023-04-16T09:52:01;28.75;;;12.38;;
46613;SDS011;32338;50.430;6.806;2023-04-16T09:54:27;37.67;;;13.65;;
46613;SDS011;32338;50.430;6.806;2023-04-16T09:56:55;28.52;;;13.10;;
46613;SDS011;32338;50.430;6.806;2023-04-16T09:59:22;29.95;;;14.98;;
46613;SDS011;32338;50.430;6.806;2023-04-16T10:01:49;35.33;;;16.45;;
46613;SDS011;32338;50.430;6.806;2023-04-16T10:04:17;31.52;;;15.90;;
46613;SDS011;32338;50.430;6.806;2023-04-16T10:06:45;41.65;;;18.15;;
46613;SDS011;32338;50.430;6.806;2023-04-16T10:09:30;33.72;;;17.20;;
46613;SDS011;32338;50.430;6.806;2023-04-16T10:11:57;30.98;;;16.30;;
46613;SDS011;32338;50.430;6.806;2023-04-16T10:14:24;44.03;;;20.52;;
46613;SDS011;32338;50.430;6.806;2023-04-16T10:16:50;40.00;;;18.40;;
46613;SDS011;32338;50.430;6.806;2023-04-16T10:19:18;34.80;;;18.65;;
46613;SDS011;32338;50.430;6.806;2023-04-16T10:21:47;35.63;;;18.90;;
46613;SDS011;32338;50.430;6.806;2023-04-16T10:24:15;39.67;;;19.83;;
46613;SDS011;32338;50.430;6.806;2023-04-16T10:26:43;47.88;;;19.23;;
46613;SDS011;32338;50.430;6.806;2023-04-16T10:29:10;42.25;;;18.70;;
46613;SDS011;32338;50.430;6.806;2023-04-16T10:31:37;40.15;;;18.20;;
46613;SDS011;32338;50.430;6.806;2023-04-16T10:34:06;31.65;;;16.45;;
46613;SDS011;32338;50.430;6.806;2023-04-16T10:36:35;41.55;;;16.35;;
46613;SDS011;32338;50.430;6.806;2023-04-16T10:39:03;34.92;;;16.77;;
46613;SDS011;32338;50.430;6.806;2023-04-16T10:41:31;35.95;;;16.27;;
46613;SDS011;32338;50.430;6.806;2023-04-16T10:44:02;44.30;;;17.65;;
46613;SDS011;32338;50.430;6.806;2023-04-16T10:46:34;29.43;;;14.70;;
46613;SDS011;32338;50.430;6.806;2023-04-16T10:49:11;31.15;;;15.20;;
46613;SDS011;32338;50.430;6.806;2023-04-16T10:51:39;37.47;;;15.23;;
46613;SDS011;32338;50.430;6.806;2023-04-16T10:54:19;30.17;;;15.52;;
46613;SDS011;32338;50.430;6.806;2023-04-16T10:56:49;30.98;;;14.60;;
46613;SDS011;32338;50.430;6.806;2023-04-16T10:59:16;31.55;;;14.57;;
46613;SDS011;32338;50.430;6.806;2023-04-16T11:01:44;28.95;;;14.85;;
46613;SDS011;32338;50.430;6.806;2023-04-16T11:04:27;30.20;;;14.40;;
46613;SDS011;32338;50.430;6.806;2023-04-16T11:07:05;27.58;;;14.18;;
46613;SDS011;32338;50.430;6.806;2023-04-16T11:09:42;36.25;;;14.82;;
46613;SDS011;32338;50.430;6.806;2023-04-16T11:12:11;40.30;;;18.33;;
46613;SDS011;32338;50.430;6.806;2023-04-16T11:14:40;37.83;;;16.58;;
46613;SDS011;32338;50.430;6.806;2023-04-16T11:17:07;45.03;;;17.52;;
46613;SDS011;32338;50.430;6.806;2023-04-16T11:19:34;47.60;;;18.58;;
46613;SDS011;32338;50.430;6.806;2023-04-16T11:22:01;48.10;;;20.92;;
46613;SDS011;32338;50.430;6.806;2023-04-16T11:24:28;69.35;;;22.77;;
46613;SDS011;32338;50.430;6.806;2023-04-16T11:26:56;60.67;;;22.17;;
46613;SDS011;32338;50.430;6.806;2023-04-16T11:29:23;49.58;;;22.38;;
46613;SDS011;32338;50.430;6.806;2023-04-16T11:31:50;68.40;;;22.17;;
46613;SDS011;32338;50.430;6.806;2023-04-16T11:34:17;61.15;;;21.75;;
46613;SDS011;32338;50.430;6.806;2023-04-16T11:36:44;58.58;;;22.02;;
46613;SDS011;32338;50.430;6.806;2023-04-16T11:39:12;72.60;;;23.10;;
46613;SDS011;32338;50.430;6.806;2023-04-16T11:41:41;52.20;;;22.45;;
46613;SDS011;32338;50.430;6.806;2023-04-16T11:44:19;62.33;;;23.80;;
46613;SDS011;32338;50.430;6.806;2023-04-16T11:46:47;106.10;;;38.65;;
46613;SDS011;32338;50.430;6.806;2023-04-16T11:49:14;128.32;;;43.35;;
46613;SDS011;32338;50.430;6.806;2023-04-16T11:51:42;147.70;;;51.78;;
46613;SDS011;32338;50.430;6.806;2023-04-16T11:54:17;165.85;;;50.83;;
46613;SDS011;32338;50.430;6.806;2023-04-16T11:56:45;141.38;;;54.28;;
46613;SDS011;32338;50.430;6.806;2023-04-16T11:59:13;157.25;;;54.60;;
46613;SDS011;32338;50.430;6.806;2023-04-16T12:01:45;148.45;;;55.17;;
46613;SDS011;32338;50.430;6.806;2023-04-16T12:04:13;144.95;;;54.55;;
46613;SDS011;32338;50.430;6.806;2023-04-16T12:06:48;140.98;;;52.53;;
46613;SDS011;32338;50.430;6.806;2023-04-16T12:09:31;137.48;;;51.55;;
46613;SDS011;32338;50.430;6.806;2023-04-16T12:11:59;126.50;;;49.25;;
46613;SDS011;32338;50.430;6.806;2023-04-16T12:14:25;139.77;;;45.53;;
46613;SDS011;32338;50.430;6.806;2023-04-16T12:16:53;94.82;;;37.35;;
46613;SDS011;32338;50.430;6.806;2023-04-16T12:19:20;94.85;;;35.90;;
46613;SDS011;32338;50.430;6.806;2023-04-16T12:21:47;87.53;;;34.22;;
46613;SDS011;32338;50.430;6.806;2023-04-16T12:24:16;96.75;;;37.22;;
46613;SDS011;32338;50.430;6.806;2023-04-16T12:26:47;137.80;;;49.17;;
46613;SDS011;32338;50.430;6.806;2023-04-16T12:29:21;141.40;;;53.35;;
46613;SDS011;32338;50.430;6.806;2023-04-16T12:31:49;117.50;;;50.28;;
46613;SDS011;32338;50.430;6.806;2023-04-16T12:34:19;114.50;;;48.50;;
46613;SDS011;32338;50.430;6.806;2023-04-16T12:36:52;133.63;;;50.67;;
46613;SDS011;32338;50.430;6.806;2023-04-16T12:39:28;127.35;;;50.35;;
46613;SDS011;32338;50.430;6.806;2023-04-16T12:41:55;116.22;;;49.33;;
46613;SDS011;32338;50.430;6.806;2023-04-16T12:44:21;106.78;;;50.17;;
46613;SDS011;32338;50.430;6.806;2023-04-16T12:46:48;101.45;;;48.95;;
46613;SDS011;32338;50.430;6.806;2023-04-16T12:49:14;88.30;;;47.75;;
46613;SDS011;32338;50.430;6.806;2023-04-16T12:51:42;98.88;;;48.60;;
46613;SDS011;32338;50.430;6.806;2023-04-16T12:54:09;92.43;;;49.63;;
46613;SDS011;32338;50.430;6.806;2023-04-16T12:56:36;80.72;;;46.78;;
46613;SDS011;32338;50.430;6.806;2023-04-16T12:59:02;80.20;;;45.85;;
46613;SDS011;32338;50.430;6.806;2023-04-16T13:01:29;73.97;;;42.47;;
46613;SDS011;32338;50.430;6.806;2023-04-16T13:03:55;78.72;;;43.70;;
46613;SDS011;32338;50.430;6.806;2023-04-16T13:06:22;83.28;;;45.33;;
46613;SDS011;32338;50.430;6.806;2023-04-16T13:08:50;85.47;;;47.97;;
46613;SDS011;32338;50.430;6.806;2023-04-16T13:11:17;82.03;;;47.90;;
46613;SDS011;32338;50.430;6.806;2023-04-16T13:13:44;72.75;;;44.50;;
46613;SDS011;32338;50.430;6.806;2023-04-16T13:16:10;79.15;;;43.85;;
46613;SDS011;32338;50.430;6.806;2023-04-16T13:18:37;85.53;;;46.58;;
46613;SDS011;32338;50.430;6.806;2023-04-16T13:21:04;81.65;;;45.70;;
46613;SDS011;32338;50.430;6.806;2023-04-16T13:23:30;74.70;;;42.72;;
46613;SDS011;32338;50.430;6.806;2023-04-16T13:25:58;74.22;;;42.88;;
46613;SDS011;32338;50.430;6.806;2023-04-16T13:28:25;65.78;;;40.05;;
46613;SDS011;32338;50.430;6.806;2023-04-16T13:30:52;71.50;;;41.10;;
46613;SDS011;32338;50.430;6.806;2023-04-16T13:33:18;65.72;;;40.70;;
46613;SDS011;32338;50.430;6.806;2023-04-16T13:35:46;72.10;;;39.80;;
46613;SDS011;32338;50.430;6.806;2023-04-16T13:38:13;69.03;;;42.42;;
46613;SDS011;32338;50.430;6.806;2023-04-16T13:40:40;69.45;;;41.10;;
46613;SDS011;32338;50.430;6.806;2023-04-16T13:43:08;69.35;;;40.90;;
46613;SDS011;32338;50.430;6.806;2023-04-16T13:45:36;59.72;;;38.17;;
46613;SDS011;32338;50.430;6.806;2023-04-16T13:48:03;63.65;;;38.17;;
46613;SDS011;32338;50.430;6.806;2023-04-16T13:50:30;59.17;;;37.60;;
46613;SDS011;32338;50.430;6.806;2023-04-16T13:52:56;58.83;;;36.80;;
46613;SDS011;32338;50.430;6.806;2023-04-16T13:55:23;62.20;;;36.72;;
46613;SDS011;32338;50.430;6.806;2023-04-16T13:57:49;56.60;;;34.88;;
46613;SDS011;32338;50.430;6.806;2023-04-16T14:00:18;57.20;;;34.13;;
46613;SDS011;32338;50.430;6.806;2023-04-16T14:02:45;52.95;;;34.53;;
46613;SDS011;32338;50.430;6.806;2023-04-16T14:05:12;56.60;;;35.97;;
46613;SDS011;32338;50.430;6.806;2023-04-16T14:07:39;56.58;;;36.22;;
46613;SDS011;32338;50.430;6.806;2023-04-16T14:10:06;52.20;;;33.70;;
46613;SDS011;32338;50.430;6.806;2023-04-16T14:12:33;53.17;;;35.13;;
46613;SDS011;32338;50.430;6.806;2023-04-16T14:15:01;61.72;;;36.30;;
46613;SDS011;32338;50.430;6.806;2023-04-16T14:17:29;57.47;;;35.17;;
46613;SDS011;32338;50.430;6.806;2023-04-16T14:19:56;55.70;;;36.80;;
46613;SDS011;32338;50.430;6.806;2023-04-16T14:22:23;54.95;;;35.00;;
46613;SDS011;32338;50.430;6.806;2023-04-16T14:24:49;56.33;;;35.22;;
46613;SDS011;32338;50.430;6.806;2023-04-16T14:27:16;52.72;;;34.13;;
46613;SDS011;32338;50.430;6.806;2023-04-16T14:29:43;49.55;;;33.42;;